createdAt,value
2022-11-12T00:00:41.549Z,9.17
2022-11-12T00:03:28.490Z,8.73
2022-11-12T00:06:15.544Z,11.27
2022-11-12T00:09:02.058Z,8.37
2022-11-12T00:11:48.692Z,10.10
2022-11-12T00:14:37.398Z,8.33
2022-11-12T00:17:24.481Z,10.60
2022-11-12T00:20:12.556Z,11.33
2022-11-12T00:22:59.025Z,7.57
2022-11-12T00:25:46.190Z,9.80
2022-11-12T00:28:37.702Z,9.13
2022-11-12T00:31:26.704Z,12.43
2022-11-12T00:34:13.781Z,8.47
2022-11-12T00:37:00.534Z,8.27
2022-11-12T00:39:47.502Z,8.77
2022-11-12T00:42:34.622Z,8.50
2022-11-12T00:45:22.050Z,10.30
2022-11-12T00:48:10.140Z,12.70
2022-11-12T00:51:01.540Z,10.43
2022-11-12T00:53:49.120Z,8.70
2022-11-12T00:56:36.161Z,13.70
2022-11-12T00:59:23.147Z,11.97
2022-11-12T01:02:10.207Z,8.90
2022-11-12T01:04:58.148Z,11.27
2022-11-12T01:07:45.173Z,10.70
2022-11-12T01:10:32.223Z,13.73
2022-11-12T01:13:18.824Z,11.30
2022-11-12T01:16:10.295Z,11.30
2022-11-12T01:18:58.907Z,10.83
2022-11-12T01:21:47.102Z,15.03
2022-11-12T01:24:33.972Z,14.20
2022-11-12T01:27:20.526Z,15.63
2022-11-12T01:30:08.020Z,12.17
2022-11-12T01:32:54.966Z,14.77
2022-11-12T01:35:41.479Z,14.63
2022-11-12T01:38:29.673Z,12.03
2022-11-12T01:41:19.667Z,12.77
2022-11-12T01:44:15.569Z,10.27
2022-11-12T01:47:06.193Z,9.67
2022-11-12T01:49:57.902Z,9.70
2022-11-12T01:52:46.796Z,10.60
2022-11-12T01:55:37.434Z,10.40
2022-11-12T01:58:26.262Z,10.03
2022-11-12T02:01:13.231Z,11.73
2022-11-12T02:03:59.984Z,8.73
2022-11-12T02:06:47.048Z,9.87
2022-11-12T02:09:33.893Z,10.57
2022-11-12T02:12:36.201Z,9.93
2022-11-12T02:15:23.116Z,11.73
2022-11-12T02:18:10.323Z,12.40
2022-11-12T02:20:58.005Z,10.70
2022-11-12T02:23:46.124Z,11.93
2022-11-12T02:26:35.069Z,10.83
2022-11-12T02:29:22.464Z,11.60
2022-11-12T02:32:12.111Z,10.33
2022-11-12T02:34:58.910Z,11.43
2022-11-12T02:37:46.146Z,12.97
2022-11-12T02:40:33.959Z,10.13
2022-11-12T02:43:20.981Z,10.80
2022-11-12T02:46:08.138Z,9.80
2022-11-12T02:48:55.037Z,10.20
2022-11-12T02:51:41.486Z,9.47
2022-11-12T02:54:27.839Z,12.50
2022-11-12T02:57:15.858Z,11.70
2022-11-12T03:00:02.774Z,9.87
2022-11-12T03:02:59.034Z,10.27
2022-11-12T03:05:46.933Z,10.63
2022-11-12T03:08:33.518Z,11.17
2022-11-12T03:11:19.869Z,11.60
2022-11-12T03:14:07.808Z,12.53
2022-11-12T03:16:54.666Z,11.43
2022-11-12T03:19:41.314Z,11.53
2022-11-12T03:22:27.811Z,10.33
2022-11-12T03:25:14.305Z,12.50
2022-11-12T03:28:01.247Z,10.83
2022-11-12T03:30:49.123Z,10.37
2022-11-12T03:33:35.826Z,10.53
2022-11-12T03:36:22.801Z,10.17
2022-11-12T03:39:09.849Z,11.70
2022-11-12T03:41:56.520Z,11.73
2022-11-12T03:44:43.224Z,10.33
2022-11-12T03:47:31.326Z,10.33
2022-11-12T03:50:19.909Z,10.43
2022-11-12T03:53:06.485Z,10.57
2022-11-12T03:55:53.276Z,9.60
2022-11-12T03:58:39.966Z,11.33
2022-11-12T04:01:27.073Z,9.47
2022-11-12T04:04:15.265Z,9.87
2022-11-12T04:07:19.056Z,11.23
2022-11-12T04:10:06.313Z,9.53
2022-11-12T04:13:10.711Z,9.10
2022-11-12T04:16:16.626Z,8.50
2022-11-12T04:19:22.064Z,8.50
2022-11-12T04:22:11.661Z,10.80
2022-11-12T04:25:16.054Z,7.80
2022-11-12T04:28:02.643Z,8.70
2022-11-12T04:30:48.293Z,10.23
2022-11-12T04:33:35.072Z,9.53
2022-11-12T04:36:21.553Z,8.83
2022-11-12T04:39:09.543Z,10.20
2022-11-12T04:42:13.983Z,9.00
2022-11-12T04:45:04.073Z,9.30
2022-11-12T04:47:50.611Z,9.10
2022-11-12T04:50:37.815Z,8.63
2022-11-12T04:53:25.116Z,8.50
2022-11-12T04:56:12.891Z,8.40
2022-11-12T04:58:59.734Z,8.67
2022-11-12T05:01:46.363Z,8.83
2022-11-12T05:04:32.931Z,8.93
2022-11-12T05:07:19.938Z,10.00
2022-11-12T05:10:07.781Z,8.97
2022-11-12T05:12:55.986Z,9.30
2022-11-12T05:15:44.697Z,11.40
2022-11-12T05:18:31.682Z,9.10
2022-11-12T05:21:40.589Z,8.87
2022-11-12T05:24:41.545Z,8.50
2022-11-12T05:27:29.060Z,9.33
2022-11-12T05:30:17.382Z,9.30
2022-11-12T05:33:04.380Z,9.67
2022-11-12T05:35:51.125Z,9.03
2022-11-12T05:38:39.194Z,9.57
2022-11-12T05:41:25.690Z,8.93
2022-11-12T05:44:12.416Z,8.40
2022-11-12T05:47:00.362Z,8.43
2022-11-12T05:49:47.294Z,7.90
2022-11-12T05:52:34.300Z,8.93
2022-11-12T05:55:21.059Z,7.73
2022-11-12T05:58:07.714Z,9.10
2022-11-12T06:00:54.298Z,8.67
2022-11-12T06:03:42.458Z,8.50
2022-11-12T06:06:29.224Z,10.37
2022-11-12T06:09:16.548Z,8.03
2022-11-12T06:12:06.274Z,8.47
2022-11-12T06:14:52.924Z,7.70
2022-11-12T06:17:39.817Z,8.27
2022-11-12T06:20:28.131Z,8.50
2022-11-12T06:23:14.852Z,8.30
2022-11-12T06:26:01.666Z,8.80
2022-11-12T06:28:49.348Z,8.97
2022-11-12T06:31:36.304Z,8.13
2022-11-12T06:34:22.732Z,7.83
2022-11-12T06:37:10.573Z,8.10
2022-11-12T06:39:57.164Z,9.17
2022-11-12T06:42:44.506Z,8.30
2022-11-12T06:45:31.345Z,7.93
2022-11-12T06:48:17.903Z,8.00
2022-11-12T06:51:13.044Z,8.60
2022-11-12T06:54:01.110Z,7.87
2022-11-12T06:56:47.445Z,9.83
2022-11-12T06:59:34.117Z,7.17
2022-11-12T07:02:20.728Z,7.33
2022-11-12T07:05:08.050Z,8.03
2022-11-12T07:07:55.829Z,8.50
2022-11-12T07:10:43.824Z,6.83
2022-11-12T07:13:31.682Z,7.17
2022-11-12T07:16:19.501Z,6.63
2022-11-12T07:19:06.303Z,9.27
2022-11-12T07:21:52.899Z,6.47
2022-11-12T07:24:39.470Z,7.50
2022-11-12T07:27:30.358Z,6.63
2022-11-12T07:30:17.516Z,8.17
2022-11-12T07:33:04.614Z,7.90
2022-11-12T07:35:51.100Z,9.40
2022-11-12T07:38:38.614Z,7.77
2022-11-12T07:41:26.301Z,8.53
2022-11-12T07:44:14.279Z,8.43
2022-11-12T07:47:00.886Z,8.50
2022-11-12T07:49:47.561Z,8.93
2022-11-12T07:52:34.510Z,9.37
2022-11-12T07:55:20.903Z,8.97
2022-11-12T07:58:07.593Z,7.30
2022-11-12T08:00:55.937Z,8.73
2022-11-12T08:03:42.711Z,7.67
2022-11-12T08:06:30.052Z,9.67
2022-11-12T08:09:16.910Z,8.40
2022-11-12T08:12:03.500Z,8.30
2022-11-12T08:14:50.090Z,8.30
2022-11-12T08:17:40.827Z,8.50
2022-11-12T08:20:27.543Z,8.40
2022-11-12T08:23:14.643Z,7.80
2022-11-12T08:26:02.502Z,9.37
2022-11-12T08:28:52.862Z,8.67
2022-11-12T08:31:42.707Z,8.23
2022-11-12T08:34:30.612Z,8.37
2022-11-12T08:37:17.625Z,7.93
2022-11-12T08:40:04.772Z,7.87
2022-11-12T08:42:58.159Z,8.27
2022-11-12T08:45:45.001Z,8.13
2022-11-12T08:48:32.883Z,8.17
2022-11-12T08:51:20.789Z,7.77
2022-11-12T08:54:07.440Z,8.57
2022-11-12T08:56:54.279Z,8.30
2022-11-12T08:59:41.231Z,8.00
2022-11-12T09:02:27.945Z,8.63
2022-11-12T09:05:14.664Z,7.67
2022-11-12T09:08:04.512Z,8.23
2022-11-12T09:10:52.361Z,8.60
2022-11-12T09:13:39.482Z,7.50
2022-11-12T09:16:27.049Z,6.90
2022-11-12T09:19:13.799Z,7.33
2022-11-12T09:22:00.688Z,7.57
2022-11-12T09:24:49.201Z,6.87
2022-11-12T09:27:36.363Z,6.27
2022-11-12T09:30:23.147Z,6.77
2022-11-12T09:33:10.085Z,5.83
2022-11-12T09:35:57.146Z,6.30
2022-11-12T09:38:44.084Z,6.70
2022-11-12T09:41:35.363Z,6.07
2022-11-12T09:44:24.538Z,5.63
2022-11-12T09:47:15.589Z,7.77
2022-11-12T09:50:05.225Z,5.83
2022-11-12T09:52:55.762Z,5.47
2022-11-12T09:55:44.152Z,6.60
2022-11-12T09:58:32.510Z,7.70
2022-11-12T10:01:23.933Z,5.70
2022-11-12T10:04:28.243Z,7.37
2022-11-12T10:07:21.500Z,5.63
2022-11-12T10:10:13.590Z,6.30
2022-11-12T10:13:10.678Z,5.00
2022-11-12T10:16:25.032Z,5.40
2022-11-12T10:19:37.798Z,5.17
2022-11-12T10:22:37.135Z,4.60
2022-11-12T10:25:23.629Z,5.57
2022-11-12T10:28:17.173Z,5.13
2022-11-12T10:31:11.420Z,5.37
2022-11-12T10:34:13.016Z,5.10
2022-11-12T10:37:02.713Z,5.27
2022-11-12T10:39:49.273Z,4.60
2022-11-12T10:42:36.224Z,4.77
2022-11-12T10:45:24.267Z,4.30
2022-11-12T10:48:27.192Z,4.37
2022-11-12T10:51:22.011Z,4.50
2022-11-12T10:54:30.329Z,4.83
2022-11-12T10:57:21.702Z,4.93
2022-11-12T11:00:16.109Z,4.83
2022-11-12T11:03:04.953Z,3.97
2022-11-12T11:05:55.391Z,4.03
2022-11-12T11:08:44.519Z,4.83
2022-11-12T11:11:32.056Z,3.83
2022-11-12T11:14:35.621Z,3.30
2022-11-12T11:17:22.334Z,4.00
2022-11-12T11:20:21.302Z,3.07
2022-11-12T11:23:17.537Z,3.23
2022-11-12T11:26:14.630Z,3.27
2022-11-12T11:29:18.135Z,3.47
2022-11-12T11:32:13.217Z,3.20
2022-11-12T11:35:15.198Z,3.87
2022-11-12T11:38:16.517Z,2.93
2022-11-12T11:41:32.959Z,3.60
2022-11-12T11:44:28.136Z,3.43
2022-11-12T11:47:33.987Z,4.23
2022-11-12T11:50:28.578Z,3.73
2022-11-12T11:53:24.566Z,3.90
2022-11-12T11:56:17.895Z,3.77
2022-11-12T11:59:22.349Z,6.63
2022-11-12T12:02:26.775Z,4.90
2022-11-12T12:05:23.783Z,3.53
2022-11-12T12:08:12.991Z,4.37
2022-11-12T12:11:08.939Z,4.40
2022-11-12T12:14:08.009Z,3.40
2022-11-12T12:17:02.883Z,4.97
2022-11-12T12:19:59.329Z,3.87
2022-11-12T12:22:48.615Z,4.73
2022-11-12T12:25:39.347Z,4.53
2022-11-12T12:28:38.818Z,4.03
2022-11-12T12:31:29.555Z,3.70
2022-11-12T12:34:21.433Z,4.13
2022-11-12T12:37:12.631Z,5.13
2022-11-12T12:40:04.528Z,5.00
2022-11-12T12:42:56.268Z,3.70
2022-11-12T12:45:47.855Z,3.97
2022-11-12T12:48:36.741Z,4.13
2022-11-12T12:51:23.931Z,3.67
2022-11-12T12:55:01.553Z,4.73
2022-11-12T12:57:48.588Z,4.43
2022-11-12T13:00:40.175Z,3.93
2022-11-12T13:04:04.565Z,4.10
2022-11-12T13:06:54.677Z,5.57
2022-11-12T13:09:42.659Z,3.40
2022-11-12T13:13:04.363Z,4.23
2022-11-12T13:15:53.798Z,3.93
2022-11-12T13:19:15.288Z,4.30
2022-11-12T13:22:37.734Z,3.80
2022-11-12T13:25:28.474Z,4.40
2022-11-12T13:28:16.131Z,6.93
2022-11-12T13:31:04.776Z,4.40
2022-11-12T13:33:51.881Z,4.27
2022-11-12T13:36:41.924Z,4.07
2022-11-12T13:39:29.520Z,4.40
2022-11-12T13:42:35.708Z,4.50
2022-11-12T13:45:25.233Z,4.83
2022-11-12T13:48:16.706Z,6.93
2022-11-12T13:51:06.087Z,5.00
2022-11-12T13:53:56.108Z,3.40
2022-11-12T13:56:46.154Z,4.00
2022-11-12T13:59:33.490Z,4.93
2022-11-12T14:02:23.414Z,4.33
2022-11-12T14:05:17.557Z,6.00
2022-11-12T14:08:30.725Z,6.70
2022-11-12T14:11:47.744Z,4.70
2022-11-12T14:14:43.776Z,4.70
2022-11-12T14:17:37.045Z,9.17
2022-11-12T14:20:30.687Z,5.90
2022-11-12T14:23:24.398Z,4.80
2022-11-12T14:26:12.380Z,4.60
2022-11-12T14:29:00.922Z,4.53
2022-11-12T14:31:48.595Z,4.83
2022-11-12T14:34:36.023Z,5.40
2022-11-12T14:37:41.700Z,6.40
2022-11-12T14:40:32.105Z,5.30
2022-11-12T14:43:34.455Z,5.30
2022-11-12T14:46:26.054Z,6.37
2022-11-12T14:49:18.359Z,7.40
2022-11-12T14:52:09.718Z,5.53
2022-11-12T14:55:00.136Z,5.00
2022-11-12T14:57:46.830Z,6.00
2022-11-12T15:00:39.560Z,7.23
2022-11-12T15:03:33.029Z,4.83
2022-11-12T15:06:22.709Z,4.50
2022-11-12T15:09:09.883Z,26.40
2022-11-12T15:11:56.903Z,5.93
2022-11-12T15:14:43.732Z,7.73
2022-11-12T15:17:33.574Z,5.83
2022-11-12T15:20:21.764Z,6.60
2022-11-12T15:23:17.314Z,10.77
2022-11-12T15:26:04.259Z,6.70
2022-11-12T15:29:00.456Z,3.63
2022-11-12T15:31:49.067Z,5.80
2022-11-12T15:34:47.607Z,4.23
2022-11-12T15:37:42.482Z,5.07
2022-11-12T15:40:29.472Z,4.10
2022-11-12T15:43:18.431Z,4.80
2022-11-12T15:46:05.297Z,5.70
2022-11-12T15:48:55.924Z,5.53
2022-11-12T15:51:43.234Z,5.57
2022-11-12T15:54:31.177Z,4.80
2022-11-12T15:57:20.256Z,8.10
2022-11-12T16:00:11.584Z,15.37
2022-11-12T16:03:00.477Z,6.47
2022-11-12T16:05:48.511Z,6.83
2022-11-12T16:08:34.966Z,8.40
2022-11-12T16:11:38.098Z,8.07
2022-11-12T16:14:25.300Z,9.80
2022-11-12T16:17:13.391Z,9.23
2022-11-12T16:20:02.102Z,8.97
2022-11-12T16:22:51.322Z,7.47
2022-11-12T16:25:40.117Z,9.63
2022-11-12T16:28:29.391Z,8.83
2022-11-12T16:31:16.523Z,7.13
2022-11-12T16:34:04.014Z,7.23
2022-11-12T16:36:51.390Z,8.80
2022-11-12T16:39:38.589Z,9.23
2022-11-12T16:42:25.361Z,7.73
2022-11-12T16:45:14.644Z,8.63
2022-11-12T16:48:01.721Z,7.90
2022-11-12T16:50:48.389Z,10.23
2022-11-12T16:53:35.492Z,6.97
2022-11-12T16:56:24.214Z,8.47
2022-11-12T16:59:14.357Z,9.03
2022-11-12T17:02:04.557Z,7.63
2022-11-12T17:04:54.360Z,7.67
2022-11-12T17:07:41.072Z,7.50
2022-11-12T17:10:27.699Z,7.23
2022-11-12T17:13:16.225Z,7.57
2022-11-12T17:16:02.982Z,7.50
2022-11-12T17:18:54.392Z,7.53
2022-11-12T17:21:41.248Z,7.43
2022-11-12T17:24:28.817Z,7.10
2022-11-12T17:27:15.693Z,8.47
2022-11-12T17:30:02.298Z,8.93
2022-11-12T17:32:49.527Z,8.47
2022-11-12T17:35:37.729Z,9.77
2022-11-12T17:38:24.569Z,9.80
2022-11-12T17:41:11.834Z,7.97
2022-11-12T17:43:59.602Z,8.43
2022-11-12T17:46:48.462Z,7.93
2022-11-12T17:49:35.427Z,10.73
2022-11-12T17:52:23.444Z,9.67
2022-11-12T17:55:10.505Z,8.63
2022-11-12T17:57:57.474Z,9.83
2022-11-12T18:00:43.993Z,8.67
2022-11-12T18:03:30.936Z,9.30
2022-11-12T18:06:20.661Z,9.20
2022-11-12T18:09:14.449Z,10.37
2022-11-12T18:12:05.928Z,10.73
2022-11-12T18:14:53.548Z,9.43
2022-11-12T18:17:42.563Z,9.73
2022-11-12T18:20:30.265Z,10.13
2022-11-12T18:23:17.297Z,9.77
2022-11-12T18:26:05.554Z,10.67
2022-11-12T18:28:55.330Z,10.50
2022-11-12T18:31:44.489Z,9.60
2022-11-12T18:34:36.012Z,13.17
2022-11-12T18:37:22.677Z,16.50
2022-11-12T18:40:10.279Z,12.07
2022-11-12T18:42:59.808Z,11.60
2022-11-12T18:45:46.548Z,11.83
2022-11-12T18:48:36.217Z,11.20
2022-11-12T18:51:24.202Z,10.17
2022-11-12T18:54:11.697Z,9.23
2022-11-12T18:56:59.530Z,9.17
2022-11-12T18:59:52.318Z,9.63
2022-11-12T19:02:41.443Z,10.17
2022-11-12T19:05:28.229Z,9.33
2022-11-12T19:08:17.057Z,11.07
2022-11-12T19:11:07.846Z,10.10
2022-11-12T19:13:58.947Z,10.17
2022-11-12T19:16:47.037Z,9.20
2022-11-12T19:19:35.269Z,12.93
2022-11-12T19:22:22.819Z,9.37
2022-11-12T19:25:11.300Z,9.93
2022-11-12T19:27:58.771Z,8.60
2022-11-12T19:30:46.064Z,8.93
2022-11-12T19:33:36.762Z,11.20
2022-11-12T19:36:25.226Z,8.17
2022-11-12T19:39:11.855Z,7.73
2022-11-12T19:42:02.223Z,8.80
2022-11-12T19:44:50.254Z,7.87
2022-11-12T19:47:38.610Z,7.37
2022-11-12T19:50:27.600Z,8.70
2022-11-12T19:53:14.566Z,7.67
2022-11-12T19:56:01.585Z,6.87
2022-11-12T19:58:49.309Z,8.57
2022-11-12T20:01:39.049Z,8.13
2022-11-12T20:04:28.372Z,7.37
2022-11-12T20:07:16.448Z,9.63
2022-11-12T20:10:03.648Z,8.30
2022-11-12T20:12:50.301Z,9.03
2022-11-12T20:15:41.704Z,9.07
2022-11-12T20:18:33.199Z,9.13
2022-11-12T20:21:20.819Z,8.27
2022-11-12T20:24:11.536Z,11.33
2022-11-12T20:26:58.656Z,8.43
2022-11-12T20:29:45.492Z,8.80
2022-11-12T20:32:33.470Z,9.57
2022-11-12T20:35:22.514Z,9.90
2022-11-12T20:38:09.525Z,8.10
2022-11-12T20:41:05.604Z,9.83
2022-11-12T20:43:53.926Z,8.83
2022-11-12T20:46:41.009Z,9.40
2022-11-12T20:49:28.653Z,9.23
2022-11-12T20:52:15.603Z,11.70
2022-11-12T20:55:02.844Z,8.47
2022-11-12T20:57:50.937Z,10.43
2022-11-12T21:00:38.908Z,10.67
2022-11-12T21:03:25.926Z,9.47
2022-11-12T21:06:13.986Z,10.87
2022-11-12T21:09:00.892Z,10.77
2022-11-12T21:11:47.892Z,12.53
2022-11-12T21:14:35.802Z,11.50
2022-11-12T21:17:22.822Z,12.63
2022-11-12T21:20:10.390Z,13.13
2022-11-12T21:22:58.610Z,11.60
2022-11-12T21:25:46.334Z,12.43
2022-11-12T21:28:34.925Z,11.80
2022-11-12T21:31:24.387Z,11.97
2022-11-12T21:34:11.585Z,18.17
2022-11-12T21:36:58.553Z,15.07
2022-11-12T21:39:49.241Z,14.77
2022-11-12T21:42:35.924Z,15.10
2022-11-12T21:45:22.679Z,15.57
2022-11-12T21:48:10.713Z,15.17
2022-11-12T21:50:58.234Z,14.63
2022-11-12T21:53:47.968Z,12.83
2022-11-12T21:56:35.453Z,14.80
2022-11-12T21:59:22.224Z,14.17
2022-11-12T22:02:10.135Z,12.93
2022-11-12T22:04:58.374Z,13.33
2022-11-12T22:07:46.925Z,13.40
2022-11-12T22:10:33.715Z,12.90
2022-11-12T22:13:26.845Z,14.97
2022-11-12T22:16:38.907Z,13.00
2022-11-12T22:19:25.628Z,14.27
2022-11-12T22:22:13.812Z,14.50
2022-11-12T22:25:02.220Z,16.67
2022-11-12T22:27:49.045Z,15.17
2022-11-12T22:30:36.334Z,13.77
2022-11-12T22:33:23.134Z,16.37
2022-11-12T22:36:12.280Z,13.30
2022-11-12T22:39:00.485Z,13.70
2022-11-12T22:41:48.459Z,14.23
2022-11-12T22:44:36.244Z,16.10
2022-11-12T22:47:23.560Z,14.30
2022-11-12T22:50:11.882Z,13.70
2022-11-12T22:52:58.746Z,14.10
2022-11-12T22:55:47.584Z,13.63
2022-11-12T22:58:36.793Z,15.63
2022-11-12T23:01:25.457Z,12.97
2022-11-12T23:04:12.349Z,12.87
2022-11-12T23:07:02.364Z,13.50
2022-11-12T23:09:49.052Z,15.80
2022-11-12T23:12:37.253Z,14.20
2022-11-12T23:15:23.900Z,13.57
2022-11-12T23:18:10.620Z,13.67
2022-11-12T23:21:02.937Z,13.37
2022-11-12T23:23:49.609Z,14.80
2022-11-12T23:26:36.507Z,14.83
2022-11-12T23:29:25.564Z,14.37
2022-11-12T23:32:15.302Z,14.07
2022-11-12T23:35:02.797Z,14.07
2022-11-12T23:37:49.535Z,13.00
2022-11-12T23:40:36.229Z,14.57
2022-11-12T23:43:23.043Z,17.17
2022-11-12T23:46:11.298Z,13.90
2022-11-12T23:48:57.914Z,13.30
2022-11-12T23:51:44.996Z,12.50
2022-11-12T23:54:31.704Z,13.00
2022-11-12T23:57:18.365Z,11.67
